createdAt,value
2022-10-06T00:00:11.237Z,13.74
2022-10-06T00:02:47.694Z,13.79
2022-10-06T00:05:15.257Z,13.72
2022-10-06T00:07:44.451Z,13.70
2022-10-06T00:10:23.514Z,13.88
2022-10-06T00:12:52.268Z,13.71
2022-10-06T00:15:36.659Z,13.76
2022-10-06T00:18:10.330Z,13.65
2022-10-06T00:20:37.158Z,13.78
2022-10-06T00:23:12.407Z,13.75
2022-10-06T00:26:00.442Z,13.66
2022-10-06T00:28:33.925Z,13.80
2022-10-06T00:31:03.052Z,13.73
2022-10-06T00:33:35.056Z,13.68
2022-10-06T00:36:07.651Z,13.66
2022-10-06T00:38:42.814Z,13.84
2022-10-06T00:41:19.951Z,13.73
2022-10-06T00:44:04.651Z,13.60
2022-10-06T00:46:58.650Z,13.80
2022-10-06T00:49:46.070Z,13.75
2022-10-06T00:52:35.648Z,13.63
2022-10-06T00:55:22.428Z,13.75
2022-10-06T00:57:56.808Z,13.75
2022-10-06T01:00:33.202Z,13.78
2022-10-06T01:06:28.412Z,13.62
2022-10-06T01:09:01.377Z,13.60
2022-10-06T01:11:50.170Z,13.63
2022-10-06T01:14:29.197Z,13.63
2022-10-06T01:17:25.441Z,13.87
2022-10-06T01:20:10.021Z,13.70
2022-10-06T01:23:17.551Z,13.71
2022-10-06T01:26:10.982Z,13.70
2022-10-06T01:29:00.151Z,13.63
2022-10-06T01:31:33.833Z,13.64
2022-10-06T01:34:14.864Z,13.80
2022-10-06T01:37:01.873Z,13.78
2022-10-06T01:39:47.048Z,13.62
2022-10-06T01:42:13.919Z,13.66
2022-10-06T01:45:03.976Z,13.60
2022-10-06T01:47:54.641Z,13.60
2022-10-06T01:50:43.554Z,13.55
2022-10-06T01:53:31.693Z,13.62
2022-10-06T01:56:17.306Z,13.47
2022-10-06T01:58:44.172Z,13.53
2022-10-06T02:01:17.481Z,13.50
2022-10-06T02:03:48.153Z,13.60
2022-10-06T02:06:17.716Z,13.58
2022-10-06T02:08:46.063Z,13.39
2022-10-06T02:11:16.354Z,13.45
2022-10-06T02:14:01.620Z,13.29
2022-10-06T02:16:37.815Z,13.41
2022-10-06T02:19:06.769Z,13.51
2022-10-06T02:21:36.803Z,13.35
2022-10-06T02:24:17.433Z,13.35
2022-10-06T02:26:44.573Z,13.40
2022-10-06T02:29:14.534Z,13.34
2022-10-06T02:31:45.966Z,13.29
2022-10-06T02:34:23.565Z,13.35
2022-10-06T02:36:53.104Z,13.31
2022-10-06T02:39:19.851Z,13.46
2022-10-06T02:41:52.492Z,13.36
2022-10-06T02:44:21.540Z,13.38
2022-10-06T02:46:51.236Z,13.45
2022-10-06T02:49:23.754Z,13.34
2022-10-06T02:51:56.153Z,13.31
2022-10-06T02:54:45.260Z,13.37
2022-10-06T02:57:31.675Z,13.36
2022-10-06T03:00:17.282Z,13.29
2022-10-06T03:02:55.143Z,13.43
2022-10-06T03:05:22.264Z,13.35
2022-10-06T03:07:50.523Z,13.27
2022-10-06T03:10:19.525Z,13.35
2022-10-06T03:12:46.620Z,13.35
2022-10-06T03:15:31.240Z,13.34
2022-10-06T03:18:01.703Z,13.34
2022-10-06T03:20:28.520Z,13.45
2022-10-06T03:23:01.879Z,13.37
2022-10-06T03:25:33.428Z,13.40
2022-10-06T03:28:02.572Z,13.55
2022-10-06T03:30:31.486Z,13.44
2022-10-06T03:33:01.751Z,13.46
2022-10-06T03:35:34.806Z,13.51
2022-10-06T03:38:09.901Z,13.41
2022-10-06T03:40:41.366Z,13.43
2022-10-06T03:43:14.197Z,13.43
2022-10-06T03:45:41.157Z,13.26
2022-10-06T03:48:12.451Z,13.30
2022-10-06T03:50:39.217Z,13.46
2022-10-06T03:53:06.940Z,13.45
2022-10-06T03:55:35.758Z,13.52
2022-10-06T03:58:02.386Z,13.62
2022-10-06T04:00:29.136Z,13.51
2022-10-06T04:02:55.780Z,13.64
2022-10-06T04:05:24.990Z,13.73
2022-10-06T04:07:52.864Z,13.68
2022-10-06T04:10:22.453Z,13.60
2022-10-06T04:12:49.156Z,13.62
2022-10-06T04:15:15.901Z,13.58
2022-10-06T04:17:42.769Z,13.51
2022-10-06T04:20:09.687Z,13.31
2022-10-06T04:22:36.600Z,13.47
2022-10-06T04:25:03.563Z,13.41
2022-10-06T04:27:33.856Z,13.34
2022-10-06T04:30:03.225Z,13.31
2022-10-06T04:32:29.975Z,13.34
2022-10-06T04:34:57.218Z,13.24
2022-10-06T04:37:44.256Z,13.35
2022-10-06T04:40:13.771Z,13.45
2022-10-06T04:42:45.611Z,13.33
2022-10-06T04:45:17.082Z,13.38
2022-10-06T04:47:45.943Z,13.43
2022-10-06T04:50:14.856Z,13.46
2022-10-06T04:52:41.679Z,13.47
2022-10-06T04:55:34.425Z,13.35
2022-10-06T04:58:19.851Z,13.35
2022-10-06T05:01:18.802Z,13.38
2022-10-06T05:04:08.681Z,13.41
2022-10-06T05:06:54.130Z,13.47
2022-10-06T05:09:23.911Z,13.56
2022-10-06T05:12:03.464Z,13.40
2022-10-06T05:14:30.329Z,13.55
2022-10-06T05:16:59.741Z,13.61
2022-10-06T05:19:28.790Z,13.56
2022-10-06T05:21:58.812Z,13.56
2022-10-06T05:24:27.617Z,13.66
2022-10-06T05:27:11.852Z,13.58
2022-10-06T05:29:44.645Z,13.69
2022-10-06T05:32:22.745Z,13.61
2022-10-06T05:35:18.069Z,13.59
2022-10-06T05:37:42.597Z,13.48
2022-10-06T05:40:11.483Z,13.66
2022-10-06T05:42:47.327Z,13.52
2022-10-06T05:45:18.924Z,13.58
2022-10-06T05:47:45.726Z,13.71
2022-10-06T05:50:17.350Z,13.78
2022-10-06T05:52:44.188Z,13.83
2022-10-06T05:55:32.378Z,13.77
2022-10-06T05:58:25.199Z,13.74
2022-10-06T06:01:20.397Z,13.86
2022-10-06T06:03:54.474Z,13.83
2022-10-06T06:06:48.893Z,13.82
2022-10-06T06:09:26.388Z,13.83
2022-10-06T08:33:42.305Z,15.06
2022-10-06T08:36:19.327Z,15.07
2022-10-06T08:38:50.012Z,15.20
2022-10-06T08:41:17.735Z,15.30
2022-10-06T08:43:54.908Z,15.49
2022-10-06T08:46:28.024Z,15.66
2022-10-06T08:48:54.665Z,15.71
2022-10-06T08:51:49.984Z,15.84
2022-10-06T08:54:40.812Z,15.86
2022-10-06T08:57:47.278Z,16.06
2022-10-06T09:00:21.136Z,16.21
2022-10-06T09:02:50.624Z,16.12
2022-10-06T09:05:26.362Z,16.16
2022-10-06T09:08:24.477Z,15.96
2022-10-06T09:11:32.253Z,15.96
2022-10-06T09:14:12.756Z,16.00
2022-10-06T09:16:47.327Z,15.99
2022-10-06T09:19:41.321Z,15.98
2022-10-06T09:22:18.651Z,16.25
2022-10-06T09:24:50.187Z,16.59
2022-10-06T09:27:33.768Z,16.86
2022-10-06T09:30:04.520Z,16.94
2022-10-06T09:32:33.201Z,17.03
2022-10-06T09:35:00.194Z,17.15
2022-10-06T09:37:27.571Z,17.07
2022-10-06T09:39:55.392Z,17.08
2022-10-06T09:42:28.323Z,17.06
2022-10-06T09:45:24.714Z,17.22
2022-10-06T09:47:51.492Z,17.03
2022-10-06T09:50:28.565Z,17.00
2022-10-06T09:53:00.730Z,16.88
2022-10-06T09:55:40.196Z,16.77
2022-10-06T09:58:39.113Z,17.22
2022-10-06T10:01:12.308Z,17.46
2022-10-06T10:06:38.945Z,17.87
2022-10-06T10:09:29.034Z,17.79
2022-10-06T10:12:29.962Z,17.58
2022-10-06T10:15:31.480Z,17.55
2022-10-06T10:18:03.548Z,17.34
2022-10-06T10:20:37.589Z,17.10
2022-10-06T10:23:31.907Z,17.16
2022-10-06T10:26:17.753Z,17.00
2022-10-06T10:29:35.536Z,16.88
2022-10-06T10:32:21.860Z,16.84
2022-10-06T10:35:20.263Z,17.19
2022-10-06T10:38:03.886Z,17.53
2022-10-06T10:41:06.744Z,17.56
2022-10-06T10:43:48.673Z,18.04
2022-10-06T10:46:28.402Z,18.06
2022-10-06T10:49:09.698Z,18.24
2022-10-06T10:51:58.510Z,18.13
2022-10-06T10:54:37.354Z,18.21
2022-10-06T10:57:11.104Z,18.05
2022-10-06T11:00:07.493Z,17.95
2022-10-06T11:02:35.723Z,17.76
2022-10-06T11:05:43.072Z,17.41
2022-10-06T11:08:28.709Z,17.13
2022-10-06T11:11:01.693Z,16.92
2022-10-06T11:13:45.699Z,16.95
2022-10-06T11:16:18.250Z,17.02
2022-10-06T11:19:04.617Z,16.90
2022-10-06T11:22:09.530Z,16.92
2022-10-06T11:24:53.731Z,17.00
2022-10-06T11:28:01.581Z,17.24
2022-10-06T11:30:30.462Z,17.56
2022-10-06T11:33:37.959Z,17.89
2022-10-06T11:36:15.660Z,18.10
2022-10-06T11:38:52.354Z,18.14
2022-10-06T11:41:43.422Z,18.14
2022-10-06T11:44:41.368Z,18.28
2022-10-06T11:47:34.369Z,18.46
2022-10-06T11:50:02.598Z,18.53
2022-10-06T11:52:29.095Z,18.52
2022-10-06T11:55:12.946Z,18.62
2022-10-06T11:58:23.476Z,18.68
2022-10-06T12:00:54.627Z,18.94
2022-10-06T12:03:45.323Z,18.78
2022-10-06T12:06:47.098Z,18.92
2022-10-06T12:09:25.998Z,18.98
2022-10-06T12:11:55.846Z,19.10
2022-10-06T12:17:51.219Z,18.86
2022-10-06T12:21:06.295Z,18.69
2022-10-06T12:23:58.614Z,18.52
2022-10-06T12:26:43.882Z,18.68
2022-10-06T12:29:16.535Z,18.87
2022-10-06T12:31:56.956Z,19.01
2022-10-06T12:34:43.962Z,19.07
2022-10-06T12:37:28.955Z,18.99
2022-10-06T12:40:48.381Z,18.98
2022-10-06T12:43:14.841Z,19.20
2022-10-06T12:46:04.884Z,19.27
2022-10-06T12:49:02.672Z,19.36
2022-10-06T12:51:35.235Z,19.51
2022-10-06T12:54:28.144Z,19.68
2022-10-06T12:57:14.579Z,19.39
2022-10-06T12:59:41.814Z,19.05
2022-10-06T13:02:17.539Z,18.82
2022-10-06T13:05:11.766Z,18.80
2022-10-06T13:07:57.844Z,18.70
2022-10-06T13:10:25.260Z,18.60
2022-10-06T13:12:52.066Z,18.55
2022-10-06T13:15:27.672Z,18.59
2022-10-06T13:17:57.986Z,18.55
2022-10-06T13:20:49.659Z,18.68
2022-10-06T13:23:32.103Z,18.86
2022-10-06T13:26:08.591Z,18.91
2022-10-06T13:28:44.798Z,19.22
2022-10-06T13:31:34.593Z,19.24
2022-10-06T13:34:06.867Z,19.31
2022-10-06T13:36:44.926Z,19.69
2022-10-06T13:39:17.463Z,20.63
2022-10-06T13:42:03.635Z,21.79
2022-10-06T13:44:39.205Z,22.75
2022-10-06T13:47:17.384Z,23.24
2022-10-06T13:50:06.365Z,23.91
2022-10-06T13:52:40.470Z,24.61
2022-10-06T13:55:28.243Z,25.33
2022-10-06T13:57:59.409Z,25.83
2022-10-06T14:00:58.083Z,26.40
2022-10-06T14:06:17.310Z,27.35
2022-10-06T14:08:55.019Z,27.73
2022-10-06T14:11:29.480Z,27.68
2022-10-06T14:14:14.857Z,26.76
2022-10-06T14:16:52.999Z,27.29
2022-10-06T14:19:41.141Z,27.99
2022-10-06T14:22:38.110Z,28.39
2022-10-06T14:25:12.431Z,28.51
2022-10-06T14:27:38.948Z,27.64
2022-10-06T14:30:06.449Z,25.86
2022-10-06T14:32:33.104Z,24.71
2022-10-06T14:35:00.191Z,23.82
2022-10-06T14:37:26.680Z,23.37
2022-10-06T14:39:55.925Z,23.03
2022-10-06T14:42:24.682Z,22.74
2022-10-06T14:44:51.209Z,22.32
2022-10-06T14:47:17.876Z,21.80
2022-10-06T14:49:45.189Z,21.79
2022-10-06T14:52:12.030Z,21.76
2022-10-06T14:54:39.093Z,21.96
2022-10-06T14:57:05.646Z,21.92
2022-10-06T14:59:32.637Z,21.95
2022-10-06T15:01:59.164Z,22.09
2022-10-06T15:04:27.619Z,21.70
2022-10-06T15:07:12.778Z,21.25
2022-10-06T15:09:39.460Z,20.62
2022-10-06T15:12:07.535Z,20.28
2022-10-06T15:14:39.348Z,20.24
2022-10-06T15:17:06.375Z,19.97
2022-10-06T15:19:34.251Z,19.80
2022-10-06T15:22:01.077Z,19.65
2022-10-06T15:24:27.703Z,19.55
2022-10-06T15:27:13.072Z,19.33
2022-10-06T15:29:39.622Z,19.12
2022-10-06T15:32:06.700Z,19.02
2022-10-06T15:34:34.553Z,18.86
2022-10-06T15:37:03.561Z,18.65
2022-10-06T15:39:35.815Z,18.57
2022-10-06T15:42:02.630Z,18.54
2022-10-06T15:44:34.157Z,18.36
2022-10-06T15:47:04.008Z,18.25
2022-10-06T15:49:32.628Z,18.09
2022-10-06T15:52:02.986Z,18.06
2022-10-06T15:54:33.945Z,18.06
2022-10-06T15:57:03.431Z,17.95
2022-10-06T15:59:33.899Z,17.90
2022-10-06T16:02:08.605Z,17.91
2022-10-06T16:04:38.674Z,17.96
2022-10-06T16:07:11.159Z,17.88
2022-10-06T16:09:43.427Z,17.99
2022-10-06T16:12:16.189Z,17.92
2022-10-06T16:14:43.252Z,17.79
2022-10-06T16:17:11.551Z,17.70
2022-10-06T16:19:40.243Z,17.54
2022-10-06T16:22:10.893Z,17.55
2022-10-06T16:24:37.513Z,17.52
2022-10-06T16:27:05.685Z,17.33
2022-10-06T16:29:32.747Z,17.22
2022-10-06T16:31:59.389Z,17.10
2022-10-06T16:34:26.068Z,16.95
2022-10-06T16:36:52.606Z,16.79
2022-10-06T16:39:22.114Z,16.64
2022-10-06T16:41:50.959Z,16.53
2022-10-06T16:44:18.129Z,16.36
2022-10-06T16:46:45.672Z,16.28
2022-10-06T16:49:12.620Z,16.22
2022-10-06T16:51:42.968Z,16.17
2022-10-06T16:54:13.522Z,16.10
2022-10-06T16:56:47.937Z,16.04
2022-10-06T16:59:27.476Z,15.99
2022-10-06T17:01:54.160Z,15.91
2022-10-06T17:04:26.260Z,15.88
2022-10-06T17:06:56.044Z,15.83
2022-10-06T17:09:27.966Z,15.75
2022-10-06T17:11:58.439Z,15.67
2022-10-06T17:14:27.876Z,15.63
2022-10-06T17:16:56.015Z,15.54
2022-10-06T17:19:26.126Z,15.50
2022-10-06T17:21:58.540Z,15.47
2022-10-06T17:24:28.269Z,15.40
2022-10-06T17:26:55.852Z,15.40
2022-10-06T17:29:23.547Z,15.36
2022-10-06T17:31:56.061Z,15.31
2022-10-06T17:34:26.416Z,15.22
2022-10-06T17:36:54.794Z,15.16
2022-10-06T17:39:24.284Z,15.10
2022-10-06T17:41:56.938Z,15.10
2022-10-06T17:44:26.753Z,15.02
2022-10-06T17:46:57.526Z,14.93
2022-10-06T17:49:25.590Z,14.87
2022-10-06T17:51:54.648Z,14.75
2022-10-06T17:54:25.317Z,14.68
2022-10-06T17:56:56.015Z,14.58
2022-10-06T17:59:30.260Z,14.52
2022-10-06T18:02:00.949Z,14.46
2022-10-06T18:04:28.328Z,14.44
2022-10-06T18:06:55.437Z,14.40
2022-10-06T18:09:22.843Z,14.30
2022-10-06T18:11:55.598Z,14.23
2022-10-06T18:14:29.334Z,14.20
2022-10-06T18:17:02.425Z,14.12
2022-10-06T18:19:35.537Z,14.04
2022-10-06T18:22:10.501Z,14.00
2022-10-06T18:24:39.775Z,13.90
2022-10-06T18:27:07.838Z,13.81
2022-10-06T18:29:37.933Z,13.70
2022-10-06T18:37:39.801Z,13.38
2022-10-06T18:40:09.914Z,13.27
2022-10-06T18:42:37.014Z,13.05
2022-10-06T18:45:22.484Z,13.04
2022-10-06T18:48:07.941Z,12.98
2022-10-06T18:50:35.063Z,12.82
2022-10-06T18:53:04.042Z,12.69
2022-10-06T18:55:32.371Z,12.75
2022-10-06T18:57:58.964Z,12.85
2022-10-06T19:00:28.127Z,12.91
2022-10-06T19:02:56.666Z,12.92
2022-10-06T19:05:24.794Z,12.72
2022-10-06T19:07:53.965Z,12.53
2022-10-06T19:10:20.615Z,12.42
2022-10-06T19:12:48.276Z,12.40
2022-10-06T19:15:20.011Z,12.46
2022-10-06T19:17:47.464Z,12.40
2022-10-06T19:20:14.227Z,12.50
2022-10-06T19:22:40.809Z,12.53
2022-10-06T19:25:07.888Z,12.63
2022-10-06T19:27:35.942Z,12.64
2022-10-06T19:30:02.455Z,12.53
2022-10-06T19:32:34.346Z,12.35
2022-10-06T19:35:00.963Z,12.36
2022-10-06T19:37:30.267Z,12.29
2022-10-06T19:39:58.265Z,12.22
2022-10-06T19:42:43.690Z,12.15
2022-10-06T19:45:12.086Z,11.88
2022-10-06T19:47:38.978Z,11.67
2022-10-06T19:50:11.721Z,11.61
2022-10-06T19:52:39.085Z,11.67
2022-10-06T19:55:06.243Z,11.75
2022-10-06T19:57:33.513Z,11.79
2022-10-06T20:00:00.947Z,11.68
2022-10-06T20:02:28.608Z,11.55
2022-10-06T20:04:56.928Z,11.59
2022-10-06T20:07:27.433Z,11.71
2022-10-06T20:09:54.426Z,11.73
2022-10-06T20:12:24.848Z,11.81
2022-10-06T20:14:54.580Z,11.70
2022-10-06T20:17:23.226Z,11.43
2022-10-06T20:19:52.822Z,11.21
2022-10-06T20:22:23.498Z,11.09
2022-10-06T20:24:51.673Z,11.07
2022-10-06T20:27:18.427Z,11.06
2022-10-06T20:29:45.191Z,10.87
2022-10-06T20:32:12.313Z,10.76
2022-10-06T20:34:38.832Z,10.80
2022-10-06T20:37:05.440Z,10.87
2022-10-06T20:39:52.560Z,10.88
2022-10-06T20:42:20.934Z,10.83
2022-10-06T20:44:48.405Z,10.80
2022-10-06T20:47:18.636Z,10.82
2022-10-06T20:49:45.209Z,10.74
2022-10-06T20:52:14.923Z,10.69
2022-10-06T20:54:42.389Z,10.70
2022-10-06T20:57:09.661Z,10.86
2022-10-06T20:59:37.386Z,10.96
2022-10-06T21:02:05.863Z,10.97
2022-10-06T21:04:34.675Z,10.93
2022-10-06T21:07:03.774Z,10.98
2022-10-06T21:09:30.872Z,10.95
2022-10-06T21:11:57.688Z,10.85
2022-10-06T21:14:24.200Z,10.72
2022-10-06T21:16:51.828Z,10.76
2022-10-06T21:19:20.118Z,10.80
2022-10-06T21:21:53.249Z,10.88
2022-10-06T21:24:20.515Z,10.93
2022-10-06T21:26:47.570Z,10.92
2022-10-06T21:29:15.288Z,10.95
2022-10-06T21:31:43.619Z,10.93
2022-10-06T21:34:11.581Z,11.00
2022-10-06T21:36:38.866Z,11.04
2022-10-06T21:39:06.847Z,10.96
2022-10-06T21:41:40.620Z,10.92
2022-10-06T21:44:18.703Z,10.88
2022-10-06T21:46:54.893Z,10.94
2022-10-06T21:49:25.570Z,10.79
2022-10-06T21:51:55.138Z,10.78
2022-10-06T21:54:23.738Z,10.80
2022-10-06T21:56:51.034Z,10.80
2022-10-06T21:59:17.637Z,10.80
2022-10-06T22:01:46.689Z,10.83
2022-10-06T22:04:14.821Z,10.82
2022-10-06T22:06:43.903Z,10.81
2022-10-06T22:09:17.986Z,10.84
2022-10-06T22:11:44.668Z,10.81
2022-10-06T22:14:14.640Z,10.78
2022-10-06T22:16:41.920Z,10.73
2022-10-06T22:19:12.279Z,10.63
2022-10-06T22:21:43.391Z,10.45
2022-10-06T22:24:12.582Z,10.48
2022-10-06T22:26:41.628Z,10.47
2022-10-06T22:29:13.191Z,10.46
2022-10-06T22:31:45.708Z,10.37
2022-10-06T22:34:15.654Z,10.31
2022-10-06T22:36:42.442Z,10.31
2022-10-06T22:39:09.238Z,10.31
2022-10-06T22:41:36.165Z,10.20
2022-10-06T22:44:02.825Z,10.08
2022-10-06T22:46:33.186Z,10.12
2022-10-06T22:49:00.290Z,10.10
2022-10-06T22:51:27.142Z,10.12
2022-10-06T22:53:58.327Z,10.22
2022-10-06T22:56:28.336Z,10.25
2022-10-06T22:58:55.412Z,10.27
2022-10-06T23:01:22.029Z,10.32
2022-10-06T23:03:48.731Z,10.31
2022-10-06T23:06:17.752Z,10.34
2022-10-06T23:08:44.745Z,10.32
2022-10-06T23:11:20.321Z,10.30
2022-10-06T23:13:48.338Z,10.31
2022-10-06T23:16:17.557Z,10.05
2022-10-06T23:18:45.069Z,9.73
2022-10-06T23:21:19.218Z,9.60
2022-10-06T23:23:46.561Z,9.63
2022-10-06T23:26:16.335Z,9.72
2022-10-06T23:28:43.429Z,9.59
2022-10-06T23:31:11.350Z,9.58
2022-10-06T23:33:38.215Z,9.72
2022-10-06T23:36:09.275Z,9.84
2022-10-06T23:38:37.094Z,9.90
2022-10-06T23:41:04.891Z,9.89
2022-10-06T23:43:31.704Z,9.92
2022-10-06T23:46:02.223Z,9.96
2022-10-06T23:48:29.557Z,9.98
2022-10-06T23:51:08.062Z,9.98
2022-10-06T23:53:35.342Z,9.67
2022-10-06T23:56:02.819Z,9.37
2022-10-06T23:58:29.430Z,9.16
